Time;durP1;ratioP1;P1;durP2;ratioP2;P2;SDS_P1;SDS_P2;PMS_P1;PMS_P2;Temp;Humidity;BMP_temperature;BMP_pressure;BME280_temperature;BME280_humidity;BME280_pressure;Samples;Min_cycle;Max_cycle;Signal;HPM_P1;HPM_P2
2022/12/10 00:01:17;;;;;;;42.13;13.30;;;;;;;-2.86;100.00;100804.69;5013266;28;20020;-76
2022/12/10 00:03:43;;;;;;;74.05;47.80;;;;;;;-3.01;100.00;100799.84;5017960;28;20125;-77
2022/12/10 00:06:15;;;;;;;38.78;15.00;;;;;;;-2.90;100.00;100803.91;5012886;28;20021;-77
2022/12/10 00:08:41;;;;;;;76.03;48.42;;;;;;;-3.02;100.00;100806.72;5016333;28;20030;-77
2022/12/10 00:11:09;;;;;;;36.08;13.07;;;;;;;-2.92;100.00;100807.41;4993330;28;20026;-76
2022/12/10 00:13:36;;;;;;;38.47;13.05;;;;;;;-2.92;100.00;100815.13;5026734;28;20591;-77
2022/12/10 00:16:05;;;;;;;78.18;48.95;;;;;;;-3.09;100.00;100810.31;5029721;28;20474;-77
2022/12/10 00:18:31;;;;;;;76.88;48.97;;;;;;;-3.04;100.00;100811.06;5029717;28;20029;-76
2022/12/10 00:20:57;;;;;;;78.82;52.05;;;;;;;-3.06;100.00;100817.13;5013175;28;20032;-76
2022/12/10 00:23:22;;;;;;;72.95;48.67;;;;;;;-3.09;100.00;100812.88;5010205;28;20033;-77
2022/12/10 00:25:48;;;;;;;77.13;51.63;;;;;;;-3.13;100.00;100816.38;5013029;28;20033;-76
2022/12/10 00:28:13;;;;;;;48.28;14.55;;;;;;;-3.00;100.00;100814.41;5029664;28;20029;-77
2022/12/10 00:30:39;;;;;;;37.88;14.77;;;;;;;-3.01;100.00;100815.31;5029262;28;20037;-74
2022/12/10 00:33:04;;;;;;;81.05;51.72;;;;;;;-3.16;100.00;100822.44;5030103;28;20037;-75
2022/12/10 00:35:30;;;;;;;77.97;50.15;;;;;;;-3.21;100.00;100824.22;5029565;28;20418;-75
2022/12/10 00:37:55;;;;;;;77.43;51.63;;;;;;;-3.20;100.00;100818.22;5029316;28;20475;-77
2022/12/10 00:40:21;;;;;;;79.20;51.97;;;;;;;-3.18;100.00;100824.19;5008095;28;20052;-75
2022/12/10 00:42:47;;;;;;;41.90;15.15;;;;;;;-3.05;100.00;100818.81;5012539;28;20024;-78
2022/12/10 00:45:12;;;;;;;81.28;50.60;;;;;;;-3.24;100.00;100819.13;5028605;28;20629;-75
2022/12/10 00:47:37;;;;;;;76.32;50.25;;;;;;;-3.25;100.00;100817.44;5030129;28;20286;-75
2022/12/10 00:50:03;;;;;;;80.00;51.95;;;;;;;-3.24;100.00;100820.84;5012375;28;20032;-75
2022/12/10 00:52:28;;;;;;;45.92;15.95;;;;;;;-3.15;100.00;100805.28;5029241;28;20029;-76
2022/12/10 00:54:54;;;;;;;32.67;13.00;;;;;;;-3.17;100.00;100810.44;5029942;28;20035;-76
2022/12/10 00:57:19;;;;;;;79.18;50.03;;;;;;;-3.28;100.00;100803.78;5009818;28;20185;-76
2022/12/10 00:59:44;;;;;;;83.70;53.35;;;;;;;-3.29;100.00;100805.50;5030290;28;20022;-76
2022/12/10 01:02:10;;;;;;;46.58;15.57;;;;;;;-3.18;100.00;100801.03;5012118;28;20033;-76
2022/12/10 01:04:35;;;;;;;51.53;15.70;;;;;;;-3.18;100.00;100798.47;5028375;28;20033;-76
2022/12/10 01:07:01;;;;;;;45.13;15.95;;;;;;;-3.16;100.00;100803.59;5030166;28;20033;-76
2022/12/10 01:09:28;;;;;;;80.55;51.80;;;;;;;-3.34;100.00;100797.03;5012093;28;20021;-76
2022/12/10 01:11:55;;;;;;;84.90;54.05;;;;;;;-3.34;100.00;100797.03;5012172;28;20032;-76
2022/12/10 01:14:27;;;;;;;85.50;55.15;;;;;;;-3.32;100.00;100805.56;5016660;28;20044;-76
2022/12/10 01:17:04;;;;;;;43.17;14.77;;;;;;;-3.22;100.00;100801.94;5010106;28;20363;-76
2022/12/10 01:19:31;;;;;;;39.65;16.73;;;;;;;-3.22;100.00;100809.66;5018470;28;20133;-76
2022/12/10 01:21:57;;;;;;;37.08;14.73;;;;;;;-3.21;100.00;100813.06;5030017;28;20112;-76
2022/12/10 01:24:25;;;;;;;79.30;52.28;;;;;;;-3.34;100.00;100815.03;5029257;28;20120;-76
2022/12/10 01:26:50;;;;;;;84.80;55.58;;;;;;;-3.29;100.00;100818.38;5011451;28;20021;-76
2022/12/10 01:29:16;;;;;;;47.22;17.52;;;;;;;-3.21;100.00;100824.22;5029322;28;20494;-76
2022/12/10 01:31:42;;;;;;;47.60;16.10;;;;;;;-3.19;100.00;100816.50;5027855;28;20076;-76
2022/12/10 01:34:11;;;;;;;46.33;15.52;;;;;;;-3.21;100.00;100824.22;5025906;28;20025;-76
2022/12/10 01:36:39;;;;;;;85.75;55.00;;;;;;;-3.33;100.00;100832.16;5029332;28;20029;-76
2022/12/10 01:39:06;;;;;;;81.03;54.08;;;;;;;-3.30;100.00;100834.69;5011571;28;20433;-76
2022/12/10 01:41:44;;;;;;;82.35;54.75;;;;;;;-3.31;100.00;100832.97;5010962;28;20030;-76
2022/12/10 01:44:09;;;;;;;48.38;17.00;;;;;;;-3.19;100.00;100843.06;5014579;28;20041;-76
2022/12/10 01:46:40;;;;;;;46.33;16.08;;;;;;;-3.19;100.00;100842.22;5010289;28;20025;-76
2022/12/10 01:49:10;;;;;;;46.58;15.98;;;;;;;-3.21;100.00;100839.66;5006461;28;20029;-75
2022/12/10 01:51:38;;;;;;;46.25;15.10;;;;;;;-3.17;100.00;100846.47;5013682;28;20057;-76
2022/12/10 01:54:07;;;;;;;49.72;15.95;;;;;;;-3.13;100.00;100846.41;5010848;28;20394;-76
2022/12/10 01:56:40;;;;;;;96.57;58.78;;;;;;;-3.19;100.00;100843.06;5011953;28;20026;-75
2022/12/10 01:59:06;;;;;;;99.15;61.40;;;;;;;-3.13;100.00;100831.81;5022067;28;20104;-75
2022/12/10 02:02:02;;;;;;;53.25;15.63;;;;;;;-3.04;100.00;100839.38;5031624;28;20021;-76
2022/12/10 02:04:40;;;;;;;48.75;14.70;;;;;;;-3.00;100.00;100837.59;5015091;28;20036;-77
2022/12/10 02:07:22;;;;;;;44.88;13.43;;;;;;;-3.00;100.00;100840.16;5015570;28;20065;-77
2022/12/10 02:10:21;;;;;;;97.97;60.25;;;;;;;-3.03;100.00;100837.66;5014370;28;20091;-77
2022/12/10 02:12:51;;;;;;;106.47;61.92;;;;;;;-2.99;100.00;100839.28;5031181;28;20038;-77
2022/12/10 02:15:24;;;;;;;121.72;64.85;;;;;;;-3.08;100.00;100835.16;5020582;28;20029;-77
2022/12/10 02:17:53;;;;;;;105.88;61.63;;;;;;;-3.05;100.00;100834.25;5014220;28;20022;-77
2022/12/10 02:20:28;;;;;;;41.67;15.35;;;;;;;-2.93;100.00;100834.00;5032250;28;20040;-77
2022/12/10 02:23:22;;;;;;;47.45;15.63;;;;;;;-2.90;100.00;100839.09;5032466;28;20104;-77
2022/12/10 02:26:07;;;;;;;51.38;16.08;;;;;;;-2.87;100.00;100839.88;5014983;28;20108;-77
2022/12/10 02:28:54;;;;;;;49.55;15.98;;;;;;;-2.85;100.00;100839.84;5032661;28;20059;-76
2022/12/10 02:31:24;;;;;;;44.60;14.50;;;;;;;-2.80;100.00;100835.50;5029703;28;20511;-76
2022/12/10 02:33:54;;;;;;;47.17;15.25;;;;;;;-2.76;100.00;100831.13;5014710;28;20390;-76
2022/12/10 02:36:23;;;;;;;45.92;13.88;;;;;;;-2.74;100.00;100829.38;5013765;28;20022;-76
2022/12/10 02:38:51;;;;;;;106.18;62.50;;;;;;;-2.83;100.00;100846.66;5032705;28;20378;-76
2022/12/10 02:41:28;;;;;;;62.55;18.58;;;;;;;-2.72;100.00;100831.03;5014849;28;20069;-76
2022/12/10 02:43:56;;;;;;;104.25;63.17;;;;;;;-2.77;100.00;100830.28;5013713;28;20545;-76
2022/12/10 02:46:24;;;;;;;113.80;64.80;;;;;;;-2.79;100.00;100826.91;5012641;28;20928;-76
2022/12/10 02:48:52;;;;;;;47.53;16.02;;;;;;;-2.67;100.00;100818.91;5029370;28;20021;-76
2022/12/10 02:51:17;;;;;;;47.20;15.27;;;;;;;-2.65;100.00;100824.88;5030559;28;20029;-76
2022/12/10 02:53:44;;;;;;;51.03;16.75;;;;;;;-2.62;100.00;100822.25;5013950;28;20390;-76
2022/12/10 02:56:31;;;;;;;38.60;12.38;;;;;;;-2.57;100.00;100823.00;5014616;28;20040;-76
2022/12/10 02:59:26;;;;;;;51.72;15.98;;;;;;;-2.56;100.00;100819.53;5013686;28;20433;-76
2022/12/10 03:02:14;;;;;;;103.05;62.08;;;;;;;-2.59;100.00;100829.06;5031127;28;20029;-76
2022/12/10 03:04:58;;;;;;;56.50;17.83;;;;;;;-2.53;100.00;100839.22;5013252;28;20029;-76
2022/12/10 03:07:38;;;;;;;112.65;64.30;;;;;;;-2.61;100.00;100831.66;5030640;28;20370;-77
2022/12/10 03:10:17;;;;;;;116.13;66.82;;;;;;;-2.65;100.00;100840.34;5013566;28;20536;-77
2022/12/10 03:12:48;;;;;;;113.45;64.13;;;;;;;-2.62;100.00;100840.28;5030724;28;20108;-77
2022/12/10 03:15:16;;;;;;;117.43;64.57;;;;;;;-2.62;100.00;100845.41;5031100;28;20397;-77
2022/12/10 03:17:45;;;;;;;125.75;67.95;;;;;;;-2.60;100.00;100843.66;5013401;28;20021;-76
2022/12/10 03:20:13;;;;;;;53.33;17.23;;;;;;;-2.48;100.00;100831.41;5029864;28;20029;-76
2022/12/10 03:22:42;;;;;;;59.65;18.17;;;;;;;-2.48;100.00;100832.25;5027403;28;20112;-76
2022/12/10 03:25:13;;;;;;;122.25;64.63;;;;;;;-2.56;100.00;100829.84;5030764;28;20108;-76
2022/12/10 03:27:40;;;;;;;62.70;17.92;;;;;;;-2.48;100.00;100831.41;5031221;28;20033;-76
2022/12/10 03:30:07;;;;;;;61.72;19.38;;;;;;;-2.45;100.00;100841.66;5030338;28;20402;-76
2022/12/10 03:32:33;;;;;;;54.40;17.20;;;;;;;-2.44;100.00;100830.47;5030298;28;20111;-76
2022/12/10 03:35:00;;;;;;;61.05;17.85;;;;;;;-2.43;100.00;100830.44;5013911;28;20033;-76
2022/12/10 03:37:28;;;;;;;59.47;17.52;;;;;;;-2.39;100.00;100833.81;5008560;28;20030;-76
2022/12/10 03:39:54;;;;;;;113.82;65.40;;;;;;;-2.49;100.00;100837.44;5030409;28;20033;-76
2022/12/10 03:42:20;;;;;;;124.30;67.70;;;;;;;-2.50;100.00;100838.31;5030062;28;20053;-76
2022/12/10 03:44:49;;;;;;;62.17;18.95;;;;;;;-2.38;100.00;100843.25;5013551;28;20064;-77
2022/12/10 03:47:14;;;;;;;58.78;17.00;;;;;;;-2.35;100.00;100843.16;5030209;28;20021;-77
2022/12/10 03:49:43;;;;;;;52.00;17.55;;;;;;;-2.39;100.00;100846.69;5012522;28;20076;-77
2022/12/10 03:52:09;;;;;;;116.97;63.55;;;;;;;-2.54;100.00;100853.00;5031203;28;20083;-77
2022/12/10 03:54:35;;;;;;;118.18;64.72;;;;;;;-2.49;100.00;100847.75;5029833;28;20079;-75
2022/12/10 03:57:00;;;;;;;133.60;68.78;;;;;;;-2.52;100.00;100846.94;5015471;28;20063;-75
2022/12/10 03:59:26;;;;;;;126.90;68.07;;;;;;;-2.48;100.00;100846.84;5002873;28;20021;-77
2022/12/10 04:01:51;;;;;;;138.30;69.15;;;;;;;-2.49;100.00;100845.16;5030343;28;20029;-76
2022/12/10 04:04:17;;;;;;;48.53;16.42;;;;;;;-2.40;100.00;100848.44;5030584;28;20100;-76
2022/12/10 04:06:43;;;;;;;66.10;15.90;;;;;;;-2.38;100.00;100850.97;5030990;28;20030;-77
2022/12/10 04:09:10;;;;;;;53.28;14.93;;;;;;;-2.40;100.00;100850.13;5030360;28;20021;-77
2022/12/10 04:11:36;;;;;;;130.07;66.43;;;;;;;-2.50;100.00;100844.31;5024566;28;20041;-77
2022/12/10 04:16:45;;;;;;;143.07;69.88;;;;;;;-2.53;100.00;100852.97;5030820;28;20040;-75
2022/12/10 04:19:14;;;;;;;143.75;69.78;;;;;;;-2.49;100.00;100850.31;5029710;28;20409;-77
2022/12/10 04:27:14;;;;;;;134.43;66.47;;;;;;;-2.52;100.00;100846.06;5030241;28;20052;-76
2022/12/10 04:29:40;;;;;;;131.82;68.13;;;;;;;-2.48;100.00;100846.84;5013809;28;20111;-76
2022/12/10 04:32:06;;;;;;;131.35;67.93;;;;;;;-2.42;100.00;100851.88;5014340;28;20474;-76
2022/12/10 04:34:31;;;;;;;132.80;68.20;;;;;;;-2.42;100.00;100857.88;5012455;28;20037;-76
2022/12/10 04:36:58;;;;;;;139.82;69.45;;;;;;;-2.41;100.00;100858.72;5010937;28;20112;-76
2022/12/10 04:39:24;;;;;;;140.50;69.45;;;;;;;-2.44;100.00;100848.50;5007914;28;20409;-75
2022/12/10 04:41:49;;;;;;;141.75;70.85;;;;;;;-2.43;100.00;100855.34;5025829;28;20030;-76
2022/12/10 04:44:15;;;;;;;139.38;70.00;;;;;;;-2.43;100.00;100856.19;5026711;28;20068;-75
2022/12/10 04:46:41;;;;;;;73.43;19.70;;;;;;;-2.35;100.00;100866.34;5027925;28;20069;-75
2022/12/10 04:49:07;;;;;;;69.18;18.60;;;;;;;-2.36;100.00;100862.09;5029945;28;20022;-75
2022/12/10 04:51:32;;;;;;;137.10;67.68;;;;;;;-2.48;100.00;100854.59;5028840;28;20065;-76
2022/12/10 04:53:58;;;;;;;146.48;70.10;;;;;;;-2.49;100.00;100860.63;5012867;28;20462;-76
2022/12/10 04:56:23;;;;;;;142.57;70.63;;;;;;;-2.46;100.00;100863.13;5011845;28;20043;-76
2022/12/10 04:58:49;;;;;;;142.05;69.70;;;;;;;-2.49;100.00;100876.06;5007842;28;20030;-75
2022/12/10 05:01:14;;;;;;;145.60;70.00;;;;;;;-2.45;100.00;100875.13;5007903;28;20512;-75
2022/12/10 05:03:40;;;;;;;69.80;18.60;;;;;;;-2.38;100.00;100863.84;5028628;28;20025;-76
2022/12/10 05:06:12;;;;;;;148.10;69.78;;;;;;;-2.47;100.00;100864.00;5012223;28;20490;-76
2022/12/10 05:08:38;;;;;;;157.70;67.93;;;;;;;-2.49;100.00;100874.34;5029741;28;20075;-76
2022/12/10 05:11:15;;;;;;;135.60;67.35;;;;;;;-2.47;100.00;100874.31;5028653;28;20515;-76
2022/12/10 05:13:41;;;;;;;151.23;69.22;;;;;;;-2.54;100.00;100868.44;5029449;28;20061;-76
2022/12/10 05:16:09;;;;;;;151.30;70.40;;;;;;;-2.49;100.00;100870.91;5029525;28;20092;-76
2022/12/10 05:18:35;;;;;;;133.38;66.40;;;;;;;-2.42;100.00;100872.50;5028840;28;20079;-76
2022/12/10 05:21:03;;;;;;;137.02;66.70;;;;;;;-2.46;100.00;100870.84;5010309;28;20123;-76
2022/12/10 05:23:28;;;;;;;69.82;18.50;;;;;;;-2.35;100.00;100871.50;5028394;28;20516;-76
2022/12/10 05:26:08;;;;;;;59.63;18.42;;;;;;;-2.34;100.00;100873.22;5028847;28;20029;-76
2022/12/10 05:28:36;;;;;;;129.27;65.10;;;;;;;-2.43;100.00;100868.22;5007742;28;20026;-76
2022/12/10 05:31:04;;;;;;;132.23;65.13;;;;;;;-2.38;100.00;100871.56;5025679;28;20049;-76
2022/12/10 05:33:31;;;;;;;132.98;65.57;;;;;;;-2.39;100.00;100869.88;5033062;28;20529;-76
2022/12/10 05:35:59;;;;;;;60.95;17.60;;;;;;;-2.30;100.00;100877.41;5032565;28;20149;-76
2022/12/10 05:38:25;;;;;;;64.80;17.88;;;;;;;-2.29;100.00;100874.81;5024295;28;20110;-76
2022/12/10 05:40:53;;;;;;;61.25;18.77;;;;;;;-2.27;100.00;100861.88;5033072;28;20030;-76
2022/12/10 05:43:19;;;;;;;69.90;17.92;;;;;;;-2.24;100.00;100861.81;5033150;28;20105;-76
2022/12/10 05:45:45;;;;;;;132.63;66.28;;;;;;;-2.27;100.00;100859.31;5032812;28;20152;-76
2022/12/10 05:48:13;;;;;;;69.03;17.38;;;;;;;-2.19;100.00;100854.00;5015138;28;20025;-76
2022/12/10 05:50:39;;;;;;;136.38;63.72;;;;;;;-2.27;100.00;100861.88;5033014;28;20033;-76
2022/12/10 05:53:05;;;;;;;138.07;64.78;;;;;;;-2.32;100.00;100868.88;5010283;28;20026;-76
2022/12/10 05:55:32;;;;;;;133.48;64.15;;;;;;;-2.28;100.00;100876.50;5027245;28;20026;-76
2022/12/10 05:57:58;;;;;;;123.80;60.65;;;;;;;-2.25;100.00;100875.59;5013109;28;20076;-76
2022/12/10 06:00:24;;;;;;;138.43;62.90;;;;;;;-2.32;100.00;100874.03;5011861;28;20398;-76
2022/12/10 06:02:50;;;;;;;142.48;63.53;;;;;;;-2.33;100.00;100877.47;5014992;28;20030;-76
2022/12/10 06:05:16;;;;;;;68.50;17.85;;;;;;;-2.21;100.00;100878.06;5032893;28;20021;-76
2022/12/10 06:07:42;;;;;;;55.45;15.48;;;;;;;-2.20;100.00;100873.75;5014286;28;20025;-76
2022/12/10 06:10:08;;;;;;;51.67;15.68;;;;;;;-2.17;100.00;100884.00;5031042;28;20075;-76
2022/12/10 06:12:33;;;;;;;125.80;60.92;;;;;;;-2.29;100.00;100879.09;5028027;28;20346;-78
2022/12/10 06:14:58;;;;;;;142.40;64.03;;;;;;;-2.34;100.00;100886.09;5032643;28;20028;-76
2022/12/10 06:17:24;;;;;;;134.43;63.65;;;;;;;-2.30;100.00;100880.84;5032115;28;20086;-76
2022/12/10 06:19:49;;;;;;;129.02;60.22;;;;;;;-2.31;100.00;100886.03;5032754;28;20757;-76
2022/12/10 06:22:14;;;;;;;130.15;61.95;;;;;;;-2.28;100.00;100875.66;5031971;28;20116;-77
2022/12/10 06:24:40;;;;;;;130.65;63.45;;;;;;;-2.26;100.00;100882.47;5015229;28;20018;-77
2022/12/10 06:27:06;;;;;;;126.22;61.53;;;;;;;-2.26;100.00;100889.34;5010214;28;20507;-76
2022/12/10 06:29:31;;;;;;;124.18;62.15;;;;;;;-2.26;100.00;100879.88;5011619;28;20137;-76
2022/12/10 06:31:56;;;;;;;131.43;63.20;;;;;;;-2.27;100.00;100888.50;4995291;28;20437;-76
2022/12/10 06:34:22;;;;;;;126.20;62.08;;;;;;;-2.27;100.00;100887.66;5012697;28;20209;-76
2022/12/10 06:36:47;;;;;;;131.32;62.45;;;;;;;-2.28;100.00;100893.69;5030777;28;20044;-76
2022/12/10 06:39:13;;;;;;;61.47;16.58;;;;;;;-2.16;100.00;100880.53;5032101;28;20030;-76
2022/12/10 06:41:38;;;;;;;63.50;16.27;;;;;;;-2.13;100.00;100882.19;5014477;28;20036;-76
2022/12/10 06:44:07;;;;;;;129.95;63.55;;;;;;;-2.23;100.00;100890.13;5013578;28;20041;-76
2022/12/10 06:46:32;;;;;;;125.45;62.45;;;;;;;-2.21;100.00;100882.38;5008152;28;20120;-76
2022/12/10 06:48:58;;;;;;;63.95;18.27;;;;;;;-2.12;100.00;100892.47;5014480;28;20100;-76
2022/12/10 06:51:23;;;;;;;63.97;16.80;;;;;;;-2.07;100.00;100889.78;5013632;28;20426;-76
2022/12/10 06:53:49;;;;;;;134.25;64.55;;;;;;;-2.18;100.00;100896.91;5014156;28;20482;-76
2022/12/10 06:56:17;;;;;;;75.55;21.00;;;;;;;-2.04;100.00;100903.47;5013357;28;20030;-76
2022/12/10 06:58:43;;;;;;;70.63;17.45;;;;;;;-2.02;100.00;100909.44;5030622;28;20028;-76
2022/12/10 07:01:09;;;;;;;63.45;17.38;;;;;;;-2.00;100.00;100912.84;5030310;28;20061;-76
2022/12/10 07:03:34;;;;;;;127.63;65.20;;;;;;;-2.11;100.00;100913.94;5013939;28;20064;-76
2022/12/10 07:06:01;;;;;;;136.25;66.03;;;;;;;-2.13;100.00;100921.72;4997563;28;20442;-76
2022/12/10 07:08:26;;;;;;;130.57;66.72;;;;;;;-2.14;100.00;100909.69;5031069;28;20033;-76
2022/12/10 07:10:52;;;;;;;133.32;66.93;;;;;;;-2.17;100.00;100922.66;5030816;28;20686;-76
2022/12/10 07:13:17;;;;;;;135.70;67.20;;;;;;;-2.15;100.00;100918.31;5031686;28;20493;-76
2022/12/10 07:15:43;;;;;;;136.95;68.53;;;;;;;-2.19;100.00;100924.41;5013547;28;20032;-76
2022/12/10 07:18:08;;;;;;;133.45;68.93;;;;;;;-2.13;100.00;100910.56;5028273;28;20025;-76
2022/12/10 07:20:33;;;;;;;132.73;69.38;;;;;;;-2.12;100.00;100920.81;5012238;28;20137;-76
2022/12/10 07:22:59;;;;;;;141.02;69.28;;;;;;;-2.16;100.00;100920.91;5027828;28;20112;-76
2022/12/10 07:25:24;;;;;;;139.70;67.90;;;;;;;-2.20;100.00;100925.28;5030245;28;20493;-76
2022/12/10 07:27:49;;;;;;;137.38;69.35;;;;;;;-2.20;100.00;100927.88;5013021;28;20017;-76
2022/12/10 07:30:15;;;;;;;135.32;69.78;;;;;;;-2.23;100.00;100928.78;5013309;28;20041;-76
2022/12/10 07:32:43;;;;;;;128.02;66.68;;;;;;;-2.16;100.00;100932.09;5012925;28;20080;-76
2022/12/10 07:35:08;;;;;;;133.50;70.38;;;;;;;-2.19;100.00;100934.72;5021527;28;20037;-76
2022/12/10 07:37:34;;;;;;;127.28;69.05;;;;;;;-2.18;100.00;100928.69;5011889;28;20065;-77
2022/12/10 07:39:59;;;;;;;126.65;67.38;;;;;;;-2.18;100.00;100933.84;5031052;28;20105;-77
2022/12/10 07:42:24;;;;;;;142.10;65.90;;;;;;;-2.25;100.00;100942.59;5030941;28;20080;-77
2022/12/10 07:44:50;;;;;;;140.77;66.95;;;;;;;-2.26;100.00;100938.31;5031695;28;20485;-77
2022/12/10 07:47:16;;;;;;;183.05;64.10;;;;;;;-2.26;100.00;100948.63;5030113;28;20068;-77
2022/12/10 07:49:41;;;;;;;207.88;68.10;;;;;;;-2.33;100.00;100947.88;5010105;28;20466;-77
2022/12/10 07:52:08;;;;;;;151.00;66.85;;;;;;;-2.32;100.00;100948.75;5009979;28;20032;-77
2022/12/10 07:54:33;;;;;;;147.23;65.05;;;;;;;-2.32;100.00;100951.31;4999573;28;20029;-77
2022/12/10 07:56:59;;;;;;;163.02;67.45;;;;;;;-2.33;100.00;100947.03;5011100;28;20033;-77
2022/12/10 07:59:24;;;;;;;169.38;63.17;;;;;;;-2.31;100.00;100948.72;5021249;28;20024;-77
2022/12/10 08:01:49;;;;;;;133.50;64.63;;;;;;;-2.27;100.00;100947.75;5030548;28;20486;-77
2022/12/10 08:04:15;;;;;;;232.88;69.80;;;;;;;-2.34;100.00;100953.91;5013083;28;20029;-77
2022/12/10 08:06:40;;;;;;;164.70;65.60;;;;;;;-2.30;100.00;100946.97;5013548;28;20499;-77
2022/12/10 08:09:06;;;;;;;153.77;66.90;;;;;;;-2.30;100.00;100952.13;5028668;28;20025;-74
2022/12/10 08:11:32;;;;;;;72.18;15.00;;;;;;;-2.21;100.00;100959.69;5029274;28;20025;-77
2022/12/10 08:13:58;;;;;;;50.33;15.75;;;;;;;-2.22;100.00;100963.97;5027313;28;20040;-75
2022/12/10 08:16:26;;;;;;;140.45;62.15;;;;;;;-2.29;100.00;100961.56;5028751;28;20108;-75
2022/12/10 08:18:53;;;;;;;66.95;17.08;;;;;;;-2.19;100.00;100970.81;5012782;28;20025;-75
2022/12/10 08:21:23;;;;;;;63.47;17.88;;;;;;;-2.18;100.00;100964.75;5018495;28;20044;-76
2022/12/10 08:23:49;;;;;;;67.15;15.70;;;;;;;-2.14;100.00;100968.97;5030268;28;20021;-76
2022/12/10 08:26:18;;;;;;;60.33;16.58;;;;;;;-2.13;100.00;100972.41;5017031;28;20402;-76
2022/12/10 08:28:45;;;;;;;50.83;15.18;;;;;;;-2.12;100.00;100979.25;5011233;28;20026;-79
2022/12/10 08:31:12;;;;;;;156.18;62.65;;;;;;;-2.20;100.00;100979.41;5011892;28;20046;-79
2022/12/10 08:33:39;;;;;;;133.23;61.20;;;;;;;-2.15;100.00;100975.00;5012289;28;20375;-79
2022/12/10 08:36:05;;;;;;;179.23;62.63;;;;;;;-2.14;100.00;100987.03;5029481;28;20082;-79
2022/12/10 08:38:31;;;;;;;122.40;58.70;;;;;;;-2.12;100.00;100987.84;5030192;28;20034;-76
2022/12/10 08:40:57;;;;;;;69.80;17.45;;;;;;;-2.00;100.00;100989.31;5030420;28;20021;-76
2022/12/10 08:43:22;;;;;;;169.52;59.72;;;;;;;-2.10;100.00;100983.50;5028698;28;20120;-76
2022/12/10 08:45:47;;;;;;;79.70;17.45;;;;;;;-2.03;100.00;100991.97;5030236;28;20029;-76
2022/12/10 08:48:13;;;;;;;58.83;15.43;;;;;;;-2.04;100.00;100993.69;5012374;28;20018;-76
2022/12/10 08:50:39;;;;;;;138.77;58.50;;;;;;;-2.11;100.00;101001.56;5011868;28;20090;-77
2022/12/10 08:53:04;;;;;;;123.22;56.63;;;;;;;-2.13;100.00;101001.59;5029787;28;20052;-77
2022/12/10 08:55:29;;;;;;;128.43;56.53;;;;;;;-2.09;100.00;101000.66;5016516;28;20366;-77
2022/12/10 08:57:56;;;;;;;59.17;15.55;;;;;;;-2.00;100.00;101000.50;5026694;28;20021;-77
2022/12/10 09:00:22;;;;;;;60.65;14.00;;;;;;;-1.96;100.00;101001.28;5028380;28;20415;-77
2022/12/10 09:02:47;;;;;;;113.80;57.58;;;;;;;-2.00;100.00;101000.50;5028086;28;20052;-77
2022/12/10 09:05:13;;;;;;;55.70;14.27;;;;;;;-1.88;100.00;101007.13;5030707;28;20032;-76
2022/12/10 09:07:38;;;;;;;59.22;15.52;;;;;;;-1.84;100.00;101006.19;5028638;28;20029;-76
2022/12/10 09:10:04;;;;;;;111.10;56.38;;;;;;;-1.91;100.00;101007.19;5012825;28;20025;-77
2022/12/10 09:12:29;;;;;;;49.35;15.63;;;;;;;-1.80;100.00;101012.13;5014922;28;20033;-77
2022/12/10 09:14:55;;;;;;;115.53;56.20;;;;;;;-1.91;100.00;101010.63;5030260;28;20048;-77
2022/12/10 09:17:21;;;;;;;116.80;55.63;;;;;;;-1.92;100.00;101008.94;5027622;28;20044;-77
2022/12/10 09:19:46;;;;;;;114.32;55.65;;;;;;;-1.86;100.00;101004.53;5021909;28;20486;-77
2022/12/10 09:22:12;;;;;;;117.07;55.33;;;;;;;-1.85;100.00;101006.22;5028395;28;20034;-77
2022/12/10 09:24:38;;;;;;;114.97;54.42;;;;;;;-1.84;100.00;101005.34;5028393;28;20415;-77
2022/12/10 09:27:03;;;;;;;141.65;55.97;;;;;;;-1.88;100.00;101008.88;5028962;28;20021;-77
2022/12/10 09:29:29;;;;;;;47.13;13.60;;;;;;;-1.75;100.00;101018.03;5019211;28;20046;-77
2022/12/10 09:31:55;;;;;;;107.72;53.28;;;;;;;-1.84;100.00;101016.50;4996260;28;20418;-77
2022/12/10 09:34:21;;;;;;;110.63;54.15;;;;;;;-1.85;100.00;101016.53;5011942;28;20038;-77
2022/12/10 09:36:46;;;;;;;59.33;16.65;;;;;;;-1.73;100.00;101019.69;5029861;28;20024;-76
2022/12/10 09:39:12;;;;;;;113.40;53.55;;;;;;;-1.83;100.00;101027.66;5029077;28;20164;-76
2022/12/10 09:41:46;;;;;;;107.20;51.65;;;;;;;-1.81;100.00;101024.19;5018074;28;20650;-76
2022/12/10 09:44:20;;;;;;;112.97;54.15;;;;;;;-1.83;100.00;101027.66;5008728;28;20512;-76
2022/12/10 09:46:56;;;;;;;112.53;50.65;;;;;;;-1.83;100.00;101031.09;5018040;28;20502;-76
2022/12/10 09:49:24;;;;;;;126.38;52.33;;;;;;;-1.85;100.00;101029.44;5031380;28;20229;-78
2022/12/10 09:51:53;;;;;;;109.50;51.10;;;;;;;-1.84;100.00;101031.97;5022170;28;20029;-77
2022/12/10 09:54:26;;;;;;;117.97;51.42;;;;;;;-1.86;100.00;101026.00;5018790;28;20087;-76
2022/12/10 09:56:54;;;;;;;116.97;51.08;;;;;;;-1.84;100.00;101036.28;4992577;28;20076;-76
2022/12/10 09:59:37;;;;;;;97.22;50.28;;;;;;;-1.80;100.00;101032.75;5008674;28;20026;-77
2022/12/10 10:02:21;;;;;;;124.70;49.45;;;;;;;-1.82;100.00;101039.69;5012536;28;20018;-76
2022/12/10 10:04:47;;;;;;;108.10;49.38;;;;;;;-1.84;100.00;101036.28;5029359;28;20084;-76
2022/12/10 10:07:24;;;;;;;105.82;48.45;;;;;;;-1.84;100.00;101047.44;5023652;28;20099;-76
2022/12/10 10:09:54;;;;;;;110.30;51.50;;;;;;;-1.80;100.00;101051.66;5026168;28;20025;-77
2022/12/10 10:12:20;;;;;;;106.38;50.75;;;;;;;-1.78;100.00;101046.47;5027270;28;20057;-77
2022/12/10 10:14:45;;;;;;;106.00;50.70;;;;;;;-1.73;100.00;101050.66;5014580;28;20135;-76
2022/12/10 10:17:35;;;;;;;104.13;51.38;;;;;;;-1.64;100.00;101059.94;5011737;28;20021;-76
2022/12/10 10:20:00;;;;;;;110.03;52.28;;;;;;;-1.73;100.00;101053.22;5031577;28;20121;-76
2022/12/10 10:22:26;;;;;;;113.97;51.17;;;;;;;-1.74;100.00;101053.25;5014987;28;20460;-76
2022/12/10 10:24:52;;;;;;;106.93;50.40;;;;;;;-1.69;100.00;101054.88;5013609;28;20037;-75
2022/12/10 10:27:20;;;;;;;108.22;52.15;;;;;;;-1.68;100.00;101048.81;5031692;28;20018;-75
2022/12/10 10:29:50;;;;;;;118.45;52.78;;;;;;;-1.69;100.00;101052.28;5030877;28;20124;-75
2022/12/10 10:32:22;;;;;;;101.38;50.78;;;;;;;-1.61;100.00;101052.13;5028423;28;20524;-75
2022/12/10 10:35:18;;;;;;;53.33;14.85;;;;;;;-1.52;100.00;101054.53;5032273;28;20033;-75
2022/12/10 10:37:44;;;;;;;104.40;51.78;;;;;;;-1.58;100.00;101054.66;5032491;28;20029;-75
2022/12/10 10:40:25;;;;;;;114.35;52.05;;;;;;;-1.54;100.00;101050.28;5032762;28;20108;-76
2022/12/10 10:42:55;;;;;;;100.88;51.40;;;;;;;-1.53;100.00;101047.69;5032002;28;20025;-75
2022/12/10 10:45:32;;;;;;;110.85;51.88;;;;;;;-1.50;100.00;101047.63;5011856;28;20041;-75
2022/12/10 10:48:08;;;;;;;99.60;49.75;;;;;;;-1.46;100.00;101044.09;5030059;28;20022;-75
2022/12/10 10:50:40;;;;;;;97.70;51.03;;;;;;;-1.46;100.00;101054.41;5012154;28;20095;-75
2022/12/10 10:53:33;;;;;;;46.47;14.60;;;;;;;-1.33;100.00;101050.66;5010448;28;20017;-75
2022/12/10 10:56:06;;;;;;;63.50;13.68;;;;;;;-1.33;100.00;101035.19;5031239;28;20048;-75
2022/12/10 10:58:33;;;;;;;99.95;49.30;;;;;;;-1.50;100.00;101047.63;5032094;28;20445;-75
2022/12/10 11:01:04;;;;;;;100.78;49.25;;;;;;;-1.48;100.00;101045.84;5030237;28;20525;-75
2022/12/10 11:03:32;;;;;;;94.97;47.55;;;;;;;-1.47;100.00;101044.97;5031228;28;20021;-75
2022/12/10 11:05:59;;;;;;;91.20;47.08;;;;;;;-1.52;100.00;101038.22;5032062;28;20094;-75
2022/12/10 11:08:28;;;;;;;99.97;48.38;;;;;;;-1.50;100.00;101042.44;5031374;28;20068;-74
2022/12/10 11:11:19;;;;;;;92.80;47.83;;;;;;;-1.42;100.00;101042.28;5031112;28;20599;-74